Drummond Island, MI

1:01 PM EST on January 27, 2015 (GMT -0500)
Potagannissing Bay Front | Change Station
CLOSE
Current Station
Personal Weather Station
Location: Drummond Island, MI
Elevation: 587 ft
Nearby Weather Stations

Elev 587 ft 46.06 °N, 83.67 °W | Updated 5 seconds ago

Clear
Clear
17.1 °F
Feels Like 7 °F
N
8.0
Wind Variable Wind from East
Gusts 10.0 mph

Today
High -- | Low -- °F
--% Chance of Precip.
Yesterday
High -- | Low -- °F
Precip. -- in
8:03 AM 5:32 PM
First Quarter, 56% visible
Pressure 30.22 in
Visibility 10.0 miles
Clouds Clear
Windchill 7 °F
Dew Point -1 °F
Humidity 44%
Rainfall 0.00 in
Snow Depth Not available.
UV 2 out of 12
Pollen .10 out of 12
Air Quality Not available.
Flu Activity Not available.
METAR KDRM 271755Z AUTO 06003KT 10SM CLR M09/M20 A3022 RMK AO2 T10921200 11092 21158

More Conditions Fewer Conditions

Pressure 30.22 in
Visibility 10.0 miles
Clouds Clear
Windchill 7 °F
Dew Point -1 °F
Humidity 44%
Rainfall 0.00 in
Snow Depth Not available.
UV 2 out of 12
Pollen .10 out of 12
Air Quality Not available.
Flu Activity Not available.
METAR KDRM 271755Z AUTO 06003KT 10SM CLR M09/M20 A3022 RMK AO2 T10921200 11092 21158

More Conditions Fewer Conditions

Nowcast | as of 1:00 PM EST on January 27, 2015

At 2 PM...clear. Temperature 17. Light winds. At 4 PM...clear. Temperature 18. Light winds. At 6 PM...clear. Temperature 15. Light winds. At 8 PM...clear. Temperature 11. Light winds.

×

10-Day Weather Forecast

Almanac

Astronomy

Jan. 27, 2015 Rise Set
Actual Time
Civil Twilight
Nautical Twilight
Astronomical Twilight
Moon
Length of Visible Light
Length of Day
Tomorrow will be .
, % of the Moon is Illuminated

Today's Extremes

State Highs State Lows

Community

WunderPhotos

Upload Photos

1,790,745 photos uploaded!

WunderBlogs® & News

Nearby

Air Quality

  Air Quality AQ Index Pollutant
Not available.

Snow Depth

Station Depth Elevation

Earthquake Activity

City Distance Mag. Time & Date
Minimum magnitude displayed is 2.5.

Coastal Water Temperatures

Place Temperature

Nearby Weather Stations